createdAt,value
2022-08-08T00:00:54.451Z,22.91
2022-08-08T00:03:19.854Z,22.87
2022-08-08T00:06:28.606Z,22.79
2022-08-08T00:09:16.864Z,22.75
2022-08-08T00:12:09.726Z,22.74
2022-08-08T00:14:59.217Z,22.70
2022-08-08T00:18:03.320Z,22.65
2022-08-08T00:20:51.304Z,22.62
2022-08-08T00:23:47.615Z,22.57
2022-08-08T00:26:46.504Z,22.54
2022-08-08T00:29:45.616Z,22.52
2022-08-08T00:32:36.163Z,22.49
2022-08-08T00:35:34.687Z,22.44
2022-08-08T00:38:44.364Z,22.41
2022-08-08T00:42:07.758Z,22.38
2022-08-08T00:45:27.057Z,22.29
2022-08-08T00:48:58.972Z,22.25
2022-08-08T00:52:19.878Z,22.19
2022-08-08T00:55:16.726Z,22.15
2022-08-08T00:58:54.791Z,22.11
2022-08-08T01:01:42.502Z,22.07
2022-08-08T01:04:53.083Z,22.02
2022-08-08T01:07:54.901Z,21.98
2022-08-08T01:10:52.305Z,21.94
2022-08-08T01:14:53.297Z,21.85
2022-08-08T01:17:19.282Z,21.84
2022-08-08T01:20:26.267Z,21.80
2022-08-08T01:24:06.404Z,21.73
2022-08-08T01:26:39.443Z,21.69
2022-08-08T01:29:58.617Z,21.65
2022-08-08T01:33:16.397Z,21.60
2022-08-08T01:36:28.426Z,21.58
2022-08-08T01:39:23.291Z,21.55
2022-08-08T01:42:21.199Z,21.51
2022-08-08T01:45:56.304Z,21.46
2022-08-08T01:49:11.046Z,21.39
2022-08-08T01:52:33.611Z,21.38
2022-08-08T01:55:19.458Z,21.26
2022-08-08T01:58:38.247Z,21.26
2022-08-08T02:02:00.061Z,21.21
2022-08-08T02:04:35.550Z,21.20
2022-08-08T02:07:22.437Z,21.17
2022-08-08T02:10:29.516Z,21.13
2022-08-08T02:13:54.034Z,21.07
2022-08-08T02:17:10.559Z,21.03
2022-08-08T02:20:15.955Z,21.00
2022-08-08T02:23:31.595Z,20.93
2022-08-08T02:26:16.076Z,20.94
2022-08-08T02:29:41.624Z,20.89
2022-08-08T02:33:12.592Z,20.82
2022-08-08T02:36:28.576Z,20.78
2022-08-08T02:39:40.382Z,20.77
2022-08-08T02:44:32.906Z,20.69
2022-08-08T02:46:34.284Z,20.66
2022-08-08T02:49:51.056Z,20.59
2022-08-08T02:52:59.149Z,20.55
2022-08-08T02:56:34.440Z,20.53
2022-08-08T02:59:57.973Z,20.49
2022-08-08T03:05:01.043Z,20.44
2022-08-08T03:06:45.577Z,20.41
2022-08-08T03:10:31.620Z,20.38
2022-08-08T03:15:58.349Z,20.32
2022-08-08T03:17:51.996Z,20.27
2022-08-08T03:20:47.082Z,20.26
2022-08-08T03:23:22.299Z,20.24
2022-08-08T03:25:51.961Z,20.22
2022-08-08T03:28:33.166Z,20.21
2022-08-08T03:31:07.914Z,20.19
2022-08-08T03:33:58.928Z,20.15
2022-08-08T03:36:30.393Z,20.13
2022-08-08T03:39:14.438Z,20.12
2022-08-08T03:42:27.197Z,20.08
2022-08-08T03:44:35.085Z,20.05
2022-08-08T03:47:14.177Z,20.02
2022-08-08T03:49:57.160Z,20.02
2022-08-08T03:52:26.829Z,19.99
2022-08-08T03:55:10.538Z,19.97
2022-08-08T03:58:30.484Z,19.95
2022-08-08T04:01:01.753Z,19.91
2022-08-08T04:03:58.517Z,19.89
2022-08-08T04:06:22.634Z,19.79
2022-08-08T04:08:50.086Z,19.80
2022-08-08T04:11:23.329Z,19.79
2022-08-08T04:14:03.474Z,19.78
2022-08-08T04:16:40.419Z,19.78
2022-08-08T04:19:24.118Z,19.77
2022-08-08T04:21:54.195Z,19.76
2022-08-08T04:24:28.576Z,19.78
2022-08-08T04:26:58.790Z,19.78
2022-08-08T04:29:36.980Z,19.79
2022-08-08T04:32:06.921Z,19.78
2022-08-08T04:34:42.836Z,19.79
2022-08-08T04:37:16.486Z,19.80
2022-08-08T04:40:04.261Z,19.79
2022-08-08T04:42:33.678Z,19.80
2022-08-08T04:45:01.130Z,19.80
2022-08-08T04:47:28.044Z,19.82
2022-08-08T04:50:00.918Z,19.83
2022-08-08T04:52:33.785Z,19.85
2022-08-08T04:55:04.202Z,19.84
2022-08-08T04:57:34.442Z,19.88
2022-08-08T05:00:02.267Z,19.91
2022-08-08T05:02:30.892Z,19.97
2022-08-08T05:04:59.811Z,20.05
2022-08-08T05:07:38.017Z,20.15
2022-08-08T05:10:12.307Z,20.32
2022-08-08T05:12:42.890Z,20.60
2022-08-08T05:16:48.401Z,21.04
2022-08-08T05:18:14.118Z,21.51
2022-08-08T05:20:48.664Z,21.97
2022-08-08T05:23:17.473Z,22.48
2022-08-08T05:25:44.342Z,23.02
2022-08-08T05:28:15.003Z,23.61
2022-08-08T05:30:47.433Z,24.19
2022-08-08T05:33:16.941Z,24.71
2022-08-08T05:35:46.447Z,25.16
2022-08-08T05:38:31.424Z,25.61
2022-08-08T05:41:03.698Z,26.05
2022-08-08T05:43:39.079Z,26.46
2022-08-08T05:46:09.746Z,26.84
2022-08-08T05:48:38.648Z,27.05
2022-08-08T05:51:15.003Z,27.14
2022-08-08T05:54:25.356Z,27.10
2022-08-08T05:56:42.323Z,26.99
2022-08-08T05:59:57.670Z,26.95
2022-08-08T06:02:43.220Z,26.98
2022-08-08T06:05:16.362Z,26.99
2022-08-08T06:08:10.223Z,27.26
2022-08-08T06:10:50.582Z,27.53
2022-08-08T06:13:22.800Z,27.65
2022-08-08T06:15:53.637Z,27.81
2022-08-08T06:18:25.651Z,28.12
2022-08-08T06:20:57.717Z,28.51
2022-08-08T06:23:49.090Z,28.72
2022-08-08T06:26:38.490Z,28.73
2022-08-08T06:29:25.952Z,28.65
2022-08-08T06:32:10.612Z,28.76
2022-08-08T06:34:39.980Z,29.05
2022-08-08T06:37:37.065Z,29.34
2022-08-08T06:40:12.794Z,29.48
2022-08-08T06:43:09.448Z,29.55
2022-08-08T06:45:40.252Z,29.65
2022-08-08T06:48:08.626Z,29.77
2022-08-08T06:50:38.489Z,29.92
2022-08-08T06:53:10.087Z,29.95
2022-08-08T06:55:46.898Z,29.88
2022-08-08T06:58:14.370Z,29.73
2022-08-08T07:00:46.423Z,29.79
2022-08-08T07:03:52.660Z,29.80
2022-08-08T07:06:26.812Z,29.82
2022-08-08T07:09:01.141Z,29.83
2022-08-08T07:11:46.213Z,29.91
2022-08-08T07:14:27.364Z,29.91
2022-08-08T07:17:09.104Z,30.06
2022-08-08T07:20:05.786Z,30.56
2022-08-08T07:23:11.895Z,31.10
2022-08-08T07:25:54.529Z,31.42
2022-08-08T07:28:31.643Z,31.28
2022-08-08T07:30:59.705Z,31.23
2022-08-08T07:33:27.338Z,31.08
2022-08-08T07:36:08.256Z,30.99
2022-08-08T07:38:37.866Z,30.79
2022-08-08T07:41:07.246Z,30.58
2022-08-08T07:43:51.141Z,30.58
2022-08-08T07:46:29.015Z,30.73
2022-08-08T07:48:57.934Z,30.96
2022-08-08T07:51:45.082Z,31.36
2022-08-08T07:54:37.871Z,31.72
2022-08-08T07:57:22.542Z,31.47
2022-08-08T07:59:58.274Z,31.07
2022-08-08T08:02:41.569Z,30.67
2022-08-08T08:05:33.145Z,30.50
2022-08-08T08:08:18.762Z,30.54
2022-08-08T08:10:57.063Z,30.55
2022-08-08T08:13:42.737Z,30.66
2022-08-08T08:16:33.682Z,30.75
2022-08-08T08:19:12.719Z,30.66
2022-08-08T08:21:57.090Z,30.62
2022-08-08T08:24:30.369Z,30.70
2022-08-08T08:27:02.991Z,30.72
2022-08-08T08:29:30.903Z,30.67
2022-08-08T08:31:59.097Z,30.65
2022-08-08T08:34:32.283Z,30.58
2022-08-08T08:37:07.634Z,30.49
2022-08-08T08:40:00.592Z,30.34
2022-08-08T08:42:32.100Z,30.26
2022-08-08T08:45:20.739Z,30.12
2022-08-08T08:47:58.575Z,29.92
2022-08-08T08:50:33.607Z,29.67
2022-08-08T08:53:28.349Z,29.43
2022-08-08T08:56:02.128Z,29.23
2022-08-08T08:58:46.506Z,29.05
2022-08-08T09:01:19.506Z,28.90
2022-08-08T09:03:50.896Z,28.78
2022-08-08T09:06:38.072Z,28.71
2022-08-08T09:09:26.378Z,28.66
2022-08-08T09:12:08.291Z,28.64
2022-08-08T09:14:35.718Z,28.61
2022-08-08T09:17:17.848Z,28.59
2022-08-08T09:22:01.644Z,28.57
2022-08-08T09:22:36.699Z,28.58
2022-08-08T09:25:07.523Z,28.60
2022-08-08T09:27:56.844Z,28.63
2022-08-08T09:30:27.866Z,28.64
2022-08-08T09:33:12.640Z,28.58
2022-08-08T09:35:51.221Z,28.54
2022-08-08T09:38:54.136Z,28.47
2022-08-08T09:41:55.087Z,28.51
2022-08-08T09:44:36.402Z,28.54
2022-08-08T09:47:26.671Z,28.59
2022-08-08T09:50:01.585Z,28.64
2022-08-08T09:52:57.516Z,28.69
2022-08-08T09:55:51.783Z,28.75
2022-08-08T09:58:25.861Z,28.81
2022-08-08T10:00:59.121Z,28.81
2022-08-08T10:03:31.382Z,28.81
2022-08-08T10:05:59.364Z,28.82
2022-08-08T10:08:26.383Z,28.86
2022-08-08T10:10:59.585Z,28.93
2022-08-08T10:13:35.871Z,28.97
2022-08-08T10:16:05.771Z,28.99
2022-08-08T10:18:35.608Z,29.00
2022-08-08T10:21:25.205Z,29.01
2022-08-08T10:24:12.264Z,29.06
2022-08-08T10:27:03.468Z,29.09
2022-08-08T10:29:59.046Z,29.12
2022-08-08T10:32:48.661Z,29.05
2022-08-08T10:36:19.974Z,29.07
2022-08-08T10:38:15.217Z,29.11
2022-08-08T10:40:45.772Z,29.17
2022-08-08T10:43:14.368Z,29.21
2022-08-08T10:45:56.138Z,29.27
2022-08-08T10:48:37.364Z,29.30
2022-08-08T10:51:13.863Z,29.32
2022-08-08T10:53:57.159Z,29.34
2022-08-08T10:56:34.456Z,29.37
2022-08-08T10:59:07.923Z,29.42
2022-08-08T11:01:39.296Z,29.45
2022-08-08T11:04:10.370Z,29.50
2022-08-08T11:06:41.443Z,29.56
2022-08-08T11:09:19.198Z,29.61
2022-08-08T11:12:05.193Z,29.58
2022-08-08T11:14:35.381Z,29.60
2022-08-08T11:17:04.402Z,29.65
2022-08-08T11:19:34.786Z,29.72
2022-08-08T11:22:04.227Z,29.73
2022-08-08T11:24:35.857Z,29.73
2022-08-08T11:27:10.762Z,29.75
2022-08-08T11:30:04.274Z,29.74
2022-08-08T11:32:47.514Z,29.79
2022-08-08T11:35:33.588Z,29.83
2022-08-08T11:38:39.246Z,29.86
2022-08-08T11:40:52.615Z,29.87
2022-08-08T11:43:24.361Z,29.93
2022-08-08T11:48:41.433Z,30.02
2022-08-08T11:51:30.794Z,30.01
2022-08-08T11:54:02.194Z,30.00
2022-08-08T11:56:42.015Z,30.02
2022-08-08T11:59:11.653Z,30.04
2022-08-08T12:01:39.089Z,30.10
2022-08-08T12:04:08.205Z,30.18
2022-08-08T12:06:35.152Z,30.26
2022-08-08T12:09:09.757Z,30.29
2022-08-08T12:11:45.867Z,30.32
2022-08-08T12:14:23.629Z,30.36
2022-08-08T12:16:53.176Z,30.38
2022-08-08T12:19:31.478Z,30.41
2022-08-08T12:22:13.891Z,30.46
2022-08-08T12:24:54.163Z,30.53
2022-08-08T12:27:27.024Z,30.58
2022-08-08T12:30:02.714Z,30.64
2022-08-08T12:32:46.489Z,30.74
2022-08-08T12:35:22.882Z,30.85
2022-08-08T12:38:05.966Z,30.99
2022-08-08T12:40:59.161Z,31.15
2022-08-08T12:43:46.434Z,31.25
2022-08-08T12:46:25.373Z,31.39
2022-08-08T12:51:58.504Z,31.62
2022-08-08T12:54:33.250Z,31.72
2022-08-08T12:57:24.510Z,31.86
2022-08-08T13:00:03.814Z,31.92
2022-08-08T13:02:35.805Z,31.99
2022-08-08T13:05:25.487Z,32.13
2022-08-08T13:08:03.442Z,32.20
2022-08-08T13:10:36.647Z,32.34
2022-08-08T13:13:34.686Z,32.44
2022-08-08T13:16:25.964Z,32.54
2022-08-08T13:19:05.500Z,32.66
2022-08-08T13:21:53.624Z,32.80
2022-08-08T13:24:42.423Z,32.90
2022-08-08T13:27:18.075Z,32.98
2022-08-08T13:30:06.388Z,33.04
2022-08-08T13:32:39.660Z,32.97
2022-08-08T13:35:11.665Z,32.88
2022-08-08T13:38:06.119Z,32.74
2022-08-08T13:40:34.981Z,32.60
2022-08-08T13:43:04.017Z,32.55
2022-08-08T13:45:31.328Z,32.53
2022-08-08T13:47:59.557Z,32.47
2022-08-08T13:50:39.278Z,32.41
2022-08-08T13:53:25.235Z,32.29
2022-08-08T13:56:12.343Z,32.26
2022-08-08T13:58:57.904Z,32.27
2022-08-08T14:01:41.935Z,32.27
2022-08-08T14:04:24.518Z,32.19
2022-08-08T14:07:01.634Z,32.09
2022-08-08T14:10:04.637Z,31.98
2022-08-08T14:12:30.029Z,31.92
2022-08-08T14:14:57.291Z,31.92
2022-08-08T14:17:57.817Z,31.91
2022-08-08T14:20:15.748Z,31.95
2022-08-08T14:23:21.060Z,31.96
2022-08-08T14:26:10.435Z,31.95
2022-08-08T14:28:39.764Z,31.93
2022-08-08T14:31:11.349Z,31.90
2022-08-08T14:33:56.646Z,31.86
2022-08-08T14:36:38.755Z,31.81
2022-08-08T14:39:11.587Z,31.77
2022-08-08T14:41:45.174Z,31.71
2022-08-08T14:44:33.696Z,31.64
2022-08-08T14:47:02.594Z,31.61
2022-08-08T14:50:06.489Z,31.61
2022-08-08T14:53:05.035Z,31.55
2022-08-08T14:55:41.269Z,31.48
2022-08-08T14:58:12.061Z,31.43
2022-08-08T15:00:44.408Z,31.31
2022-08-08T15:03:14.895Z,31.29
2022-08-08T15:05:53.783Z,31.23
2022-08-08T15:08:34.726Z,31.18
2022-08-08T15:11:09.195Z,31.16
2022-08-08T15:13:41.189Z,31.18
2022-08-08T15:16:24.314Z,31.22
2022-08-08T15:18:51.768Z,31.27
2022-08-08T15:21:21.104Z,31.35
2022-08-08T15:23:52.643Z,31.41
2022-08-08T15:26:21.218Z,31.47
2022-08-08T15:28:54.212Z,31.51
2022-08-08T15:31:55.955Z,31.53
2022-08-08T15:34:28.990Z,31.58
2022-08-08T15:36:58.463Z,31.59
2022-08-08T15:39:27.471Z,31.57
2022-08-08T15:41:55.350Z,31.55
2022-08-08T15:44:22.249Z,31.53
2022-08-08T15:46:50.738Z,31.51
2022-08-08T15:49:20.567Z,31.47
2022-08-08T15:51:50.145Z,31.43
2022-08-08T15:54:18.866Z,31.40
2022-08-08T15:57:07.549Z,31.40
2022-08-08T16:00:05.805Z,31.39
2022-08-08T16:02:21.881Z,31.35
2022-08-08T16:04:58.980Z,31.35
2022-08-08T16:07:52.117Z,31.31
2022-08-08T16:13:04.684Z,31.28
2022-08-08T16:13:28.934Z,31.23
2022-08-08T16:15:58.971Z,31.15
2022-08-08T16:18:35.819Z,31.09
2022-08-08T16:21:03.614Z,31.07
2022-08-08T16:23:32.979Z,31.01
2022-08-08T16:26:12.758Z,30.96
2022-08-08T16:28:44.320Z,30.92
2022-08-08T16:31:12.889Z,30.90
2022-08-08T16:33:40.557Z,30.89
2022-08-08T16:36:15.816Z,30.87
2022-08-08T16:38:53.985Z,30.86
2022-08-08T16:41:23.738Z,30.85
2022-08-08T16:43:52.280Z,30.85
2022-08-08T16:46:37.543Z,30.84
2022-08-08T16:49:08.853Z,30.82
2022-08-08T16:55:00.526Z,30.82
2022-08-08T16:55:18.392Z,30.76
2022-08-08T16:57:22.637Z,30.71
2022-08-08T16:59:52.177Z,30.66
2022-08-08T17:02:37.935Z,30.63
2022-08-08T17:05:08.408Z,30.57
2022-08-08T17:07:37.535Z,30.56
2022-08-08T17:10:08.634Z,30.55
2022-08-08T17:12:36.485Z,30.54
2022-08-08T17:15:17.836Z,30.52
2022-08-08T17:18:02.658Z,30.46
2022-08-08T17:20:39.730Z,30.39
2022-08-08T17:23:17.825Z,30.34
2022-08-08T17:25:57.187Z,30.30
2022-08-08T17:28:35.140Z,30.24
2022-08-08T17:31:44.860Z,30.23
2022-08-08T17:34:35.793Z,30.18
2022-08-08T17:36:55.146Z,30.12
2022-08-08T17:40:04.063Z,30.07
2022-08-08T17:42:16.526Z,29.98
2022-08-08T17:44:45.799Z,29.95
2022-08-08T17:47:24.331Z,29.92
2022-08-08T17:50:02.748Z,29.86
2022-08-08T17:52:34.171Z,29.82
2022-08-08T17:55:05.426Z,29.77
2022-08-08T17:57:36.445Z,29.71
2022-08-08T18:00:13.248Z,29.67
2022-08-08T18:02:58.169Z,29.61
2022-08-08T18:05:48.999Z,29.56
2022-08-08T18:08:37.828Z,29.49
2022-08-08T18:11:17.003Z,29.44
2022-08-08T18:13:47.917Z,29.38
2022-08-08T18:16:16.981Z,29.34
2022-08-08T18:18:54.072Z,29.31
2022-08-08T18:21:58.833Z,29.27
2022-08-08T18:24:18.900Z,29.22
2022-08-08T18:26:54.788Z,29.17
2022-08-08T18:29:36.424Z,29.14
2022-08-08T18:32:08.392Z,29.09
2022-08-08T18:34:37.887Z,29.04
2022-08-08T18:37:06.701Z,29.01
2022-08-08T18:39:41.172Z,28.95
2022-08-08T18:42:14.241Z,28.87
2022-08-08T18:44:53.031Z,28.83
2022-08-08T18:47:24.478Z,28.78
2022-08-08T18:49:58.430Z,28.72
2022-08-08T18:52:28.374Z,28.67
2022-08-08T18:54:59.568Z,28.62
2022-08-08T18:57:42.187Z,28.58
2022-08-08T19:00:16.397Z,28.53
2022-08-08T19:02:54.689Z,28.47
2022-08-08T19:05:45.453Z,28.39
2022-08-08T19:08:28.474Z,28.35
2022-08-08T19:10:59.131Z,28.30
2022-08-08T19:13:47.268Z,28.25
2022-08-08T19:16:19.404Z,28.20
2022-08-08T19:19:00.265Z,28.16
2022-08-08T19:21:33.449Z,28.08
2022-08-08T19:24:05.803Z,28.01
2022-08-08T19:26:37.796Z,27.94
2022-08-08T19:29:06.053Z,27.89
2022-08-08T19:31:35.245Z,27.82
2022-08-08T19:34:29.902Z,27.77
2022-08-08T19:36:58.420Z,27.68
2022-08-08T19:39:30.820Z,27.62
2022-08-08T19:42:06.809Z,27.57
2022-08-08T19:44:45.508Z,27.53
2022-08-08T19:47:13.957Z,27.47
2022-08-08T19:49:43.635Z,27.40
2022-08-08T19:52:35.011Z,27.36
2022-08-08T19:55:11.253Z,27.30
2022-08-08T19:57:41.044Z,27.24
2022-08-08T20:00:30.818Z,27.17
2022-08-08T20:03:00.495Z,27.11
2022-08-08T20:06:14.118Z,27.06
2022-08-08T20:08:29.289Z,27.01
2022-08-08T20:11:00.236Z,26.96
2022-08-08T20:14:32.177Z,26.93
2022-08-08T20:16:15.546Z,26.89
2022-08-08T20:18:52.788Z,26.85
2022-08-08T20:21:24.963Z,26.79
2022-08-08T20:23:58.087Z,26.74
2022-08-08T20:26:27.598Z,26.70
2022-08-08T20:28:57.376Z,26.66
2022-08-08T20:31:24.238Z,26.61
2022-08-08T20:34:30.246Z,26.55
2022-08-08T20:36:58.711Z,26.50
2022-08-08T20:39:33.635Z,26.47
2022-08-08T20:42:09.120Z,26.42
2022-08-08T20:44:37.563Z,26.39
2022-08-08T20:47:05.328Z,26.36
2022-08-08T20:49:46.641Z,26.34
2022-08-08T20:52:15.498Z,26.29
2022-08-08T20:54:44.208Z,26.26
2022-08-08T20:57:18.677Z,26.22
2022-08-08T20:59:46.736Z,26.17
2022-08-08T21:02:16.419Z,26.12
2022-08-08T21:04:52.652Z,26.09
2022-08-08T21:07:47.082Z,26.05
2022-08-08T21:10:12.780Z,26.00
2022-08-08T21:12:44.648Z,25.96
2022-08-08T21:15:16.555Z,25.94
2022-08-08T21:18:00.150Z,25.91
2022-08-08T21:20:34.155Z,25.89
2022-08-08T21:23:02.984Z,25.87
2022-08-08T21:25:32.829Z,25.85
2022-08-08T21:28:14.729Z,25.83
2022-08-08T21:30:42.513Z,25.79
2022-08-08T21:33:12.435Z,25.75
2022-08-08T21:36:18.097Z,25.73
2022-08-08T21:38:27.195Z,25.69
2022-08-08T21:40:55.522Z,25.67
2022-08-08T21:43:33.738Z,25.65
2022-08-08T21:48:06.530Z,25.60
2022-08-08T21:48:59.155Z,25.55
2022-08-08T21:54:17.592Z,25.52
2022-08-08T21:54:51.967Z,25.50
2022-08-08T21:57:07.070Z,25.47
2022-08-08T22:00:02.096Z,25.45
2022-08-08T22:02:23.419Z,25.42
2022-08-08T22:04:58.626Z,25.39
2022-08-08T22:07:34.567Z,25.37
2022-08-08T22:10:18.215Z,25.34
2022-08-08T22:13:17.005Z,25.29
2022-08-08T22:15:43.938Z,25.24
2022-08-08T22:18:28.215Z,25.20
2022-08-08T22:20:59.394Z,25.17
2022-08-08T22:23:32.636Z,25.14
2022-08-08T22:26:27.613Z,25.11
2022-08-08T22:29:14.893Z,25.06
2022-08-08T22:31:36.039Z,25.03
2022-08-08T22:34:13.808Z,25.01
2022-08-08T22:36:42.711Z,24.98
2022-08-08T22:39:18.856Z,24.96
2022-08-08T22:41:46.062Z,24.93
2022-08-08T22:44:13.019Z,24.89
2022-08-08T22:46:40.115Z,24.87
2022-08-08T22:49:09.241Z,24.82
2022-08-08T22:51:42.462Z,24.79
2022-08-08T22:54:33.194Z,24.77
2022-08-08T22:57:01.302Z,24.72
2022-08-08T22:59:35.755Z,24.69
2022-08-08T23:02:12.762Z,24.66
2022-08-08T23:04:55.783Z,24.63
2022-08-08T23:07:51.643Z,24.58
2022-08-08T23:10:12.314Z,24.56
2022-08-08T23:12:47.022Z,24.45
2022-08-08T23:16:38.674Z,24.46
2022-08-08T23:18:02.049Z,24.42
2022-08-08T23:20:31.201Z,24.42
2022-08-08T23:22:58.687Z,24.39
2022-08-08T23:25:26.457Z,24.37
2022-08-08T23:27:54.321Z,24.35
2022-08-08T23:30:22.391Z,24.30
2022-08-08T23:32:49.882Z,24.27
2022-08-08T23:35:18.865Z,24.24
2022-08-08T23:38:02.244Z,24.21
2022-08-08T23:40:30.578Z,24.15
2022-08-08T23:42:57.603Z,24.10
2022-08-08T23:49:01.800Z,23.99
2022-08-08T23:49:04.912Z,24.05
2022-08-08T23:50:58.526Z,23.94
2022-08-08T23:54:04.819Z,23.88
2022-08-08T23:56:12.857Z,23.81
2022-08-08T23:58:39.691Z,23.75
